Chantaco — FMLM — position and weather

sailwx.info

Track history (hours):
 
Tides and Currents Weather Stations Pressure Air Temp Water Temp Dewpoint Dewpoint Depression Visibility Wind Speed Wind Dir Waves Ship Positions

Chantaco

Last reported at 2016-Aug-27 16:23 UTC. Time now 2016-Aug-27 16:56 UTC.
Position N 53°38' E 000°23'.

Length 143 m; draft 6.6 m.

Type: Tanker. MMSI: 228330700.

Date/timePositionNaut miles runAvg speedWind from/ knotsBaromVisibWave heightAir tempDewpointWater temp
2016-Aug-27 16:23N 53°38' E 000°23'0 0.1
2016-Aug-27 15:32N 53°38' E 000°23'0 0.0
2016-Aug-27 14:32N 53°38' E 000°23'0 0.1
2016-Aug-27 13:32N 53°38' E 000°23'0 0.0
2016-Aug-27 12:23N 53°38' E 000°23'0 0.0
2016-Aug-27 11:23N 53°38' E 000°23'0 0.0
2016-Aug-27 10:29N 53°38' E 000°23'0 0.0
2016-Aug-27 09:23N 53°38' E 000°23'0 0.1
2016-Aug-27 08:23N 53°38' E 000°23'0 0.1
2016-Aug-27 07:32N 53°38' E 000°23'0 0.0
2016-Aug-27 04:13N 53°38' E 000°23'0 0.0
2016-Aug-27 03:28N 53°38' E 000°23'0 0.2
2016-Aug-27 02:32N 53°38' E 000°23'0 0.0
2016-Aug-27 01:32N 53°38' E 000°23'0 0.0
2016-Aug-27 00:31N 53°38' E 000°23'0 0.0
2016-Aug-26 23:28N 53°38' E 000°23'0 0.0
2016-Aug-26 22:31N 53°38' E 000°23'0 0.0
2016-Aug-26 21:31N 53°38' E 000°23'0 0.0
2016-Aug-26 20:31N 53°38' E 000°23'0 0.1
2016-Aug-26 19:31N 53°38' E 000°23'0 0.0
2016-Aug-26 18:31N 53°38' E 000°23'0 0.0
2016-Aug-26 17:22N 53°38' E 000°23'0 0.0
2016-Aug-26 16:22N 53°38' E 000°23'0 0.0
2016-Aug-26 15:25N 53°38' E 000°23'0 0.0
2016-Aug-26 14:22N 53°38' E 000°23'0 0.1
2016-Aug-26 13:25N 53°38' E 000°23'0 0.1
2016-Aug-26 12:31N 53°38' E 000°23'5 5.5
2016-Aug-26 11:33N 53°36' E 000°32'5 5.2
2016-Aug-26 10:33N 53°32' E 000°37'5 5.1
2016-Aug-26 09:33N 53°30' E 000°45'8 6.7
2016-Aug-26 08:24N 53°27' E 000°57'6 6.6
2016-Aug-26 07:32N 53°23' E 001°04'8 7.2
2016-Aug-26 06:24N 53°17' E 001°13'14 7.6
2016-Aug-26 04:33N 53°07' E 001°29'8 7.8
2016-Aug-26 03:33N 53°02' E 001°39'7 7.1
2016-Aug-26 02:33N 52°58' E 001°49'7 6.7
2016-Aug-26 01:33N 52°54' E 001°58'7 6.6
2016-Aug-26 00:33N 52°50' E 002°07'7 6.6
2016-Aug-25 23:33N 52°45' E 002°14'8 7.4
2016-Aug-25 22:29N 52°39' E 002°23'8 7.9
2016-Aug-25 21:28N 52°35' E 002°34'7 8.1
2016-Aug-25 20:33N 52°30' E 002°44'8 7.9
2016-Aug-25 19:33N 52°26' E 002°54'21 7.1
2016-Aug-25 16:33N 52°13' E 003°23'7 6.9
2016-Aug-25 15:32N 52°09' E 003°32'7 7.6
2016-Aug-25 14:33N 52°05' E 003°42'8 7.8
2016-Aug-25 13:33N 52°02' E 003°54'1211.6
2016-Aug-25 12:33N 51°57' E 004°10'2 2.1
2016-Aug-25 11:33N 51°55' E 004°13'0 0.0
2016-Aug-25 10:33N 51°55' E 004°13'0 0.0
2016-Aug-25 09:30N 51°55' E 004°13'0 0.0
2016-Aug-25 08:33N 51°55' E 004°13'0 0.0
2016-Aug-25 07:33N 51°55' E 004°13'0 0.0
2016-Aug-25 06:33N 51°55' E 004°13'0 0.0
2016-Aug-25 04:33N 51°55' E 004°13'0 0.0
2016-Aug-25 03:33N 51°55' E 004°13'0 0.0
2016-Aug-25 02:30N 51°55' E 004°13'0 0.0
2016-Aug-25 01:33N 51°55' E 004°13'0 0.0
2016-Aug-25 00:30N 51°55' E 004°13'0 0.0
2016-Aug-24 23:33N 51°55' E 004°13'0 0.0
2016-Aug-24 22:33N 51°55' E 004°13'0 0.0
2016-Aug-24 21:33N 51°55' E 004°13'0 0.0
2016-Aug-24 20:30N 51°55' E 004°13'0 0.0
2016-Aug-24 19:33N 51°55' E 004°13'0 0.0
2016-Aug-24 18:33N 51°55' E 004°13'0 0.0
2016-Aug-24 17:33N 51°55' E 004°13'0 0.0
2016-Aug-24 16:33N 51°55' E 004°13'0 0.0
2016-Aug-24 15:30N 51°55' E 004°13'1 0.6
2016-Aug-24 14:33N 51°56' E 004°12'9 9.5
2016-Aug-24 13:33N 51°60' E 003°59'9 9.3
2016-Aug-24 12:33N 52°04' E 003°46'6 3.2
2016-Aug-24 10:33N 52°10' E 003°40'0 0.1
2016-Aug-24 09:28N 52°10' E 003°40'0 0.0
2016-Aug-24 08:33N 52°10' E 003°40'0 0.0
2016-Aug-24 07:33N 52°10' E 003°40'0 0.0
2016-Aug-24 06:33N 52°10' E 003°40'0 0.0
2016-Aug-24 04:33N 52°10' E 003°40'0 0.1
2016-Aug-24 03:33N 52°10' E 003°40'0 0.1
2016-Aug-24 02:30N 52°10' E 003°40'0 0.0
2016-Aug-24 01:30N 52°10' E 003°40'0 0.0
2016-Aug-24 00:33N 52°10' E 003°40'0 0.0
2016-Aug-23 23:33N 52°10' E 003°40'0 0.0
2016-Aug-23 22:33N 52°10' E 003°40'0 0.1
2016-Aug-23 21:33N 52°10' E 003°40'0 0.1
2016-Aug-23 20:33N 52°10' E 003°40'0 0.0
2016-Aug-23 19:33N 52°10' E 003°40'0 0.0
2016-Aug-23 15:24N 52°10' E 003°40'0 0.1
2016-Aug-23 14:30N 52°10' E 003°40'0 0.0
2016-Aug-23 13:33N 52°10' E 003°40'0 0.0
2016-Aug-23 12:33N 52°10' E 003°40'0 0.0
2016-Aug-23 11:33N 52°10' E 003°40'0 0.1
2016-Aug-23 10:33N 52°10' E 003°40'0 0.1
2016-Aug-23 09:33N 52°10' E 003°40'0 0.1
2016-Aug-23 08:33N 52°10' E 003°40'0 0.0
2016-Aug-23 07:30N 52°10' E 003°40'0 0.0
2016-Aug-23 06:27N 52°10' E 003°40'0 0.0
2016-Aug-23 05:30N 52°10' E 003°40'0 0.0
2016-Aug-23 04:33N 52°10' E 003°40'8 7.8
2016-Aug-23 03:33N 52°08' E 003°28'6612.8
2016-Aug-22 22:25N 52°57' E 002°15'1315.6
2016-Aug-22 21:33N 53°03' E 001°55'1514.8
2016-Aug-22 20:33N 53°09' E 001°32'1514.7
2016-Aug-22 19:32N 53°18' E 001°12'1612.7
2016-Aug-22 18:19N 53°27' E 000°52'1114.1
2016-Aug-22 17:34N 53°30' E 000°34'1312.6
2016-Aug-22 16:33N 53°33' E 000°14'9 9.2
2016-Aug-22 15:33N 53°37' W 000°00'6 5.5
2016-Aug-22 14:31N 53°38' W 000°10'0 0.0
2016-Aug-22 13:31N 53°38' W 000°10'0 0.0
2016-Aug-22 12:31N 53°38' W 000°10'0 0.0
2016-Aug-22 11:31N 53°38' W 000°10'0 0.0
2016-Aug-22 10:31N 53°38' W 000°10'0 0.0
2016-Aug-22 09:31N 53°38' W 000°10'0 0.0
2016-Aug-22 08:31N 53°38' W 000°10'0 0.0
2016-Aug-22 07:33N 53°38' W 000°10'0 0.0
2016-Aug-22 06:34N 53°38' W 000°10'0 0.0
2016-Aug-22 05:33N 53°38' W 000°10'0 0.0
2016-Aug-22 04:33N 53°38' W 000°10'0 0.0
2016-Aug-22 03:34N 53°38' W 000°10'0 0.0
2016-Aug-22 02:33N 53°38' W 000°10'0 0.0
2016-Aug-22 01:33N 53°38' W 000°10'0 0.0
2016-Aug-22 00:33N 53°38' W 000°10'0 0.0
2016-Aug-21 23:33N 53°38' W 000°10'0 0.0
2016-Aug-21 22:33N 53°38' W 000°10'0 0.0
2016-Aug-21 21:33N 53°38' W 000°10'0 0.5
2016-Aug-21 20:34N 53°38' W 000°09'8 8.2
2016-Aug-21 19:34N 53°35' E 000°04'8 8.4
2016-Aug-21 18:33N 53°33' E 000°18'4 4.3
2016-Aug-21 17:32N 53°33' E 000°25'4 4.0
2016-Aug-21 16:33N 53°31' E 000°30'4 4.4
2016-Aug-21 15:33N 53°26' E 000°32'5 5.1
2016-Aug-21 14:33N 53°22' E 000°37'5 4.9
2016-Aug-21 13:31N 53°18' E 000°41'5 5.2
2016-Aug-21 12:32N 53°13' E 000°45'8 7.7
2016-Aug-21 11:31N 53°08' E 000°55'9 9.2
2016-Aug-21 10:33N 53°02' E 001°06'8 7.8
2016-Aug-21 09:33N 52°60' E 001°19'7 6.8
2016-Aug-21 08:33N 52°57' E 001°29'7 6.8
2016-Aug-21 07:33N 52°54' E 001°39'6 5.8
2016-Aug-21 06:33N 52°51' E 001°47'7 7.4
2016-Aug-21 05:33N 52°47' E 001°57'3310.4
2016-Aug-21 02:26N 52°14' E 001°55'8 9.7
2016-Aug-21 01:34N 52°06' E 001°52'9 8.6
2016-Aug-21 00:33N 51°57' E 001°49'7 7.1
2016-Aug-20 23:33N 51°50' E 001°48'6 6.4
2016-Aug-20 22:33N 51°44' E 001°49'7 6.7
2016-Aug-20 21:33N 51°37' E 001°49'7 7.3
2016-Aug-20 20:33N 51°30' E 001°48'8 8.1
2016-Aug-20 19:33N 51°22' E 001°44'1010.1
2016-Aug-20 18:33N 51°13' E 001°38'9 9.2
2016-Aug-20 17:33N 51°04' E 001°38'1212.4
2016-Aug-20 16:33N 50°53' E 001°27'6111.8
2016-Aug-20 11:21N 50°06' E 000°26'1013.0
2016-Aug-20 10:33N 49°58' E 000°15'1413.9
2016-Aug-20 09:33N 49°47' E 000°02'1212.0
2016-Aug-20 08:33N 49°36' W 000°05'8 8.3
2016-Aug-20 07:33N 49°30' E 000°03'5 4.6
2016-Aug-20 06:33N 49°29' E 000°10'1 0.5
2016-Aug-20 05:31N 49°29' E 000°11'0 0.0
2016-Aug-20 04:31N 49°29' E 000°11'0 0.0
2016-Aug-20 03:31N 49°29' E 000°11'0 0.0
2016-Aug-20 02:31N 49°29' E 000°11'0 0.0
2016-Aug-20 01:31N 49°29' E 000°11'0 0.0
2016-Aug-20 00:31N 49°29' E 000°11'0 0.0
2016-Aug-19 23:31N 49°29' E 000°11'0 0.0
2016-Aug-19 22:31N 49°29' E 000°11'0 0.0
2016-Aug-19 21:31N 49°29' E 000°11'0 0.0
2016-Aug-19 20:28N 49°29' E 000°11'0 0.0
2016-Aug-19 19:31N 49°29' E 000°11'0 0.0
2016-Aug-19 18:31N 49°29' E 000°11'0 0.0
2016-Aug-19 17:34N 49°29' E 000°11'0 0.0
2016-Aug-19 16:33N 49°29' E 000°11'0 0.0
2016-Aug-19 15:33N 49°29' E 000°11'0 0.0
2016-Aug-19 14:33N 49°29' E 000°11'0 0.0
2016-Aug-19 13:33N 49°29' E 000°11'0 0.0
2016-Aug-19 12:33N 49°29' E 000°11'0 0.0
2016-Aug-19 11:33N 49°29' E 000°11'0 0.0
2016-Aug-19 10:33N 49°29' E 000°11'0 0.0
2016-Aug-19 09:33N 49°29' E 000°11'0 0.0
2016-Aug-19 08:33N 49°29' E 000°11'0 0.0
2016-Aug-19 07:33N 49°29' E 000°11'0 0.0
2016-Aug-19 06:33N 49°29' E 000°11'0 0.0
2016-Aug-19 05:33N 49°29' E 000°11'0 0.0
2016-Aug-19 04:33N 49°29' E 000°11'0 0.0
2016-Aug-19 03:33N 49°29' E 000°11'0 0.0
2016-Aug-19 02:33N 49°29' E 000°11'0 0.0
2016-Aug-19 01:33N 49°29' E 000°11'0 0.0
2016-Aug-19 00:33N 49°29' E 000°11'0 0.0
2016-Aug-18 23:33N 49°29' E 000°11'1 0.6
2016-Aug-18 22:33N 49°29' E 000°10'8 7.8
2016-Aug-18 21:33N 49°31' W 000°01'1110.8
2016-Aug-18 20:34N 49°41' W 000°05'1111.3
2016-Aug-18 19:33N 49°50' E 000°06'1212.2
2016-Aug-18 18:33N 49°60' E 000°18'1313.1
2016-Aug-18 17:33N 50°11' E 000°28'1413.8
2016-Aug-18 16:33N 50°25' E 000°30'1313.3
2016-Aug-18 15:33N 50°36' E 000°41'1413.7
2016-Aug-18 14:33N 50°45' E 000°58'1312.8
2016-Aug-18 13:33N 50°53' E 001°13'1111.2
2016-Aug-18 12:33N 51°01' E 001°26'1110.9
2016-Aug-18 11:33N 51°08' E 001°38'1211.8
2016-Aug-18 10:33N 51°18' E 001°48'1414.2
2016-Aug-18 09:34N 51°30' E 002°01'1515.1
2016-Aug-18 08:33N 51°41' E 002°18'1414.1
2016-Aug-18 07:34N 51°52' E 002°31'1414.2
2016-Aug-18 06:34N 52°06' E 002°23'1413.7
2016-Aug-18 05:33N 52°19' E 002°15'1313.0
2016-Aug-18 04:33N 52°31' E 002°09'1212.0
2016-Aug-18 03:32N 52°43' E 002°02'1110.8
2016-Aug-18 02:33N 52°50' E 001°49'1110.5
2016-Aug-18 01:33N 52°57' E 001°35'1110.7
2016-Aug-18 00:33N 53°05' E 001°25'1111.2
2016-Aug-17 23:33N 53°15' E 001°16'1111.4
2016-Aug-17 22:33N 53°25' E 001°06'1111.0
2016-Aug-17 21:33N 53°29' E 000°50'1212.4
2016-Aug-17 20:33N 53°32' E 000°29'1010.2
2016-Aug-17 19:33N 53°33' E 000°12'1313.2
2016-Aug-17 18:33N 53°38' W 000°09'1 0.8
2016-Aug-17 17:32N 53°38' W 000°10'0 0.0
2016-Aug-17 16:32N 53°38' W 000°10'  
Track history (hours):
 
Tides and Currents Weather Stations Pressure Air Temp Water Temp Dewpoint Dewpoint Depression Visibility Wind Speed Wind Dir Waves Ship Positions

Chantaco

Last reported at 2016-Aug-27 16:23 UTC. Time now 2016-Aug-27 16:56 UTC.
Position N 53°38' E 000°23'.

Length 143 m; draft 6.6 m.

Type: Tanker. MMSI: 228330700.

Date/timePositionNaut miles runAvg speedWind from/ knotsBaromVisibWave heightAir tempDewpointWater temp
2016-Aug-27 16:23N 53°38' E 000°23'0 0.1
2016-Aug-27 15:32N 53°38' E 000°23'0 0.0
2016-Aug-27 14:32N 53°38' E 000°23'0 0.1
2016-Aug-27 13:32N 53°38' E 000°23'0 0.0
2016-Aug-27 12:23N 53°38' E 000°23'0 0.0
2016-Aug-27 11:23N 53°38' E 000°23'0 0.0
2016-Aug-27 10:29N 53°38' E 000°23'0 0.0
2016-Aug-27 09:23N 53°38' E 000°23'0 0.1
2016-Aug-27 08:23N 53°38' E 000°23'0 0.1
2016-Aug-27 07:32N 53°38' E 000°23'0 0.0
2016-Aug-27 04:13N 53°38' E 000°23'0 0.0
2016-Aug-27 03:28N 53°38' E 000°23'0 0.2
2016-Aug-27 02:32N 53°38' E 000°23'0 0.0
2016-Aug-27 01:32N 53°38' E 000°23'0 0.0
2016-Aug-27 00:31N 53°38' E 000°23'0 0.0
2016-Aug-26 23:28N 53°38' E 000°23'0 0.0
2016-Aug-26 22:31N 53°38' E 000°23'0 0.0
2016-Aug-26 21:31N 53°38' E 000°23'0 0.0
2016-Aug-26 20:31N 53°38' E 000°23'0 0.1
2016-Aug-26 19:31N 53°38' E 000°23'0 0.0
2016-Aug-26 18:31N 53°38' E 000°23'0 0.0
2016-Aug-26 17:22N 53°38' E 000°23'0 0.0
2016-Aug-26 16:22N 53°38' E 000°23'0 0.0
2016-Aug-26 15:25N 53°38' E 000°23'0 0.0
2016-Aug-26 14:22N 53°38' E 000°23'0 0.1
2016-Aug-26 13:25N 53°38' E 000°23'0 0.1
2016-Aug-26 12:31N 53°38' E 000°23'5 5.5
2016-Aug-26 11:33N 53°36' E 000°32'5 5.2
2016-Aug-26 10:33N 53°32' E 000°37'5 5.1
2016-Aug-26 09:33N 53°30' E 000°45'8 6.7
2016-Aug-26 08:24N 53°27' E 000°57'6 6.6
2016-Aug-26 07:32N 53°23' E 001°04'8 7.2
2016-Aug-26 06:24N 53°17' E 001°13'14 7.6
2016-Aug-26 04:33N 53°07' E 001°29'8 7.8
2016-Aug-26 03:33N 53°02' E 001°39'7 7.1
2016-Aug-26 02:33N 52°58' E 001°49'7 6.7
2016-Aug-26 01:33N 52°54' E 001°58'7 6.6
2016-Aug-26 00:33N 52°50' E 002°07'7 6.6
2016-Aug-25 23:33N 52°45' E 002°14'8 7.4
2016-Aug-25 22:29N 52°39' E 002°23'8 7.9
2016-Aug-25 21:28N 52°35' E 002°34'7 8.1
2016-Aug-25 20:33N 52°30' E 002°44'8 7.9
2016-Aug-25 19:33N 52°26' E 002°54'21 7.1
2016-Aug-25 16:33N 52°13' E 003°23'7 6.9
2016-Aug-25 15:32N 52°09' E 003°32'7 7.6
2016-Aug-25 14:33N 52°05' E 003°42'8 7.8
2016-Aug-25 13:33N 52°02' E 003°54'1211.6
2016-Aug-25 12:33N 51°57' E 004°10'2 2.1
2016-Aug-25 11:33N 51°55' E 004°13'0 0.0
2016-Aug-25 10:33N 51°55' E 004°13'0 0.0
2016-Aug-25 09:30N 51°55' E 004°13'0 0.0
2016-Aug-25 08:33N 51°55' E 004°13'0 0.0
2016-Aug-25 07:33N 51°55' E 004°13'0 0.0
2016-Aug-25 06:33N 51°55' E 004°13'0 0.0
2016-Aug-25 04:33N 51°55' E 004°13'0 0.0
2016-Aug-25 03:33N 51°55' E 004°13'0 0.0
2016-Aug-25 02:30N 51°55' E 004°13'0 0.0
2016-Aug-25 01:33N 51°55' E 004°13'0 0.0
2016-Aug-25 00:30N 51°55' E 004°13'0 0.0
2016-Aug-24 23:33N 51°55' E 004°13'0 0.0
2016-Aug-24 22:33N 51°55' E 004°13'0 0.0
2016-Aug-24 21:33N 51°55' E 004°13'0 0.0
2016-Aug-24 20:30N 51°55' E 004°13'0 0.0
2016-Aug-24 19:33N 51°55' E 004°13'0 0.0
2016-Aug-24 18:33N 51°55' E 004°13'0 0.0
2016-Aug-24 17:33N 51°55' E 004°13'0 0.0
2016-Aug-24 16:33N 51°55' E 004°13'0 0.0
2016-Aug-24 15:30N 51°55' E 004°13'1 0.6
2016-Aug-24 14:33N 51°56' E 004°12'9 9.5
2016-Aug-24 13:33N 51°60' E 003°59'9 9.3
2016-Aug-24 12:33N 52°04' E 003°46'6 3.2
2016-Aug-24 10:33N 52°10' E 003°40'0 0.1
2016-Aug-24 09:28N 52°10' E 003°40'0 0.0
2016-Aug-24 08:33N 52°10' E 003°40'0 0.0
2016-Aug-24 07:33N 52°10' E 003°40'0 0.0
2016-Aug-24 06:33N 52°10' E 003°40'0 0.0
2016-Aug-24 04:33N 52°10' E 003°40'0 0.1
2016-Aug-24 03:33N 52°10' E 003°40'0 0.1
2016-Aug-24 02:30N 52°10' E 003°40'0 0.0
2016-Aug-24 01:30N 52°10' E 003°40'0 0.0
2016-Aug-24 00:33N 52°10' E 003°40'0 0.0
2016-Aug-23 23:33N 52°10' E 003°40'0 0.0
2016-Aug-23 22:33N 52°10' E 003°40'0 0.1
2016-Aug-23 21:33N 52°10' E 003°40'0 0.1
2016-Aug-23 20:33N 52°10' E 003°40'0 0.0
2016-Aug-23 19:33N 52°10' E 003°40'0 0.0
2016-Aug-23 15:24N 52°10' E 003°40'0 0.1
2016-Aug-23 14:30N 52°10' E 003°40'0 0.0
2016-Aug-23 13:33N 52°10' E 003°40'0 0.0
2016-Aug-23 12:33N 52°10' E 003°40'0 0.0
2016-Aug-23 11:33N 52°10' E 003°40'0 0.1
2016-Aug-23 10:33N 52°10' E 003°40'0 0.1
2016-Aug-23 09:33N 52°10' E 003°40'0 0.1
2016-Aug-23 08:33N 52°10' E 003°40'0 0.0
2016-Aug-23 07:30N 52°10' E 003°40'0 0.0
2016-Aug-23 06:27N 52°10' E 003°40'0 0.0
2016-Aug-23 05:30N 52°10' E 003°40'0 0.0
2016-Aug-23 04:33N 52°10' E 003°40'8 7.8
2016-Aug-23 03:33N 52°08' E 003°28'6612.8
2016-Aug-22 22:25N 52°57' E 002°15'1315.6
2016-Aug-22 21:33N 53°03' E 001°55'1514.8
2016-Aug-22 20:33N 53°09' E 001°32'1514.7
2016-Aug-22 19:32N 53°18' E 001°12'1612.7
2016-Aug-22 18:19N 53°27' E 000°52'1114.1
2016-Aug-22 17:34N 53°30' E 000°34'1312.6
2016-Aug-22 16:33N 53°33' E 000°14'9 9.2
2016-Aug-22 15:33N 53°37' W 000°00'6 5.5
2016-Aug-22 14:31N 53°38' W 000°10'0 0.0
2016-Aug-22 13:31N 53°38' W 000°10'0 0.0
2016-Aug-22 12:31N 53°38' W 000°10'0 0.0
2016-Aug-22 11:31N 53°38' W 000°10'0 0.0
2016-Aug-22 10:31N 53°38' W 000°10'0 0.0
2016-Aug-22 09:31N 53°38' W 000°10'0 0.0
2016-Aug-22 08:31N 53°38' W 000°10'0 0.0
2016-Aug-22 07:33N 53°38' W 000°10'0 0.0
2016-Aug-22 06:34N 53°38' W 000°10'0 0.0
2016-Aug-22 05:33N 53°38' W 000°10'0 0.0
2016-Aug-22 04:33N 53°38' W 000°10'0 0.0
2016-Aug-22 03:34N 53°38' W 000°10'0 0.0
2016-Aug-22 02:33N 53°38' W 000°10'0 0.0
2016-Aug-22 01:33N 53°38' W 000°10'0 0.0
2016-Aug-22 00:33N 53°38' W 000°10'0 0.0
2016-Aug-21 23:33N 53°38' W 000°10'0 0.0
2016-Aug-21 22:33N 53°38' W 000°10'0 0.0
2016-Aug-21 21:33N 53°38' W 000°10'0 0.5
2016-Aug-21 20:34N 53°38' W 000°09'8 8.2
2016-Aug-21 19:34N 53°35' E 000°04'8 8.4
2016-Aug-21 18:33N 53°33' E 000°18'4 4.3
2016-Aug-21 17:32N 53°33' E 000°25'4 4.0
2016-Aug-21 16:33N 53°31' E 000°30'4 4.4
2016-Aug-21 15:33N 53°26' E 000°32'5 5.1
2016-Aug-21 14:33N 53°22' E 000°37'5 4.9
2016-Aug-21 13:31N 53°18' E 000°41'5 5.2
2016-Aug-21 12:32N 53°13' E 000°45'8 7.7
2016-Aug-21 11:31N 53°08' E 000°55'9 9.2
2016-Aug-21 10:33N 53°02' E 001°06'8 7.8
2016-Aug-21 09:33N 52°60' E 001°19'7 6.8
2016-Aug-21 08:33N 52°57' E 001°29'7 6.8
2016-Aug-21 07:33N 52°54' E 001°39'6 5.8
2016-Aug-21 06:33N 52°51' E 001°47'7 7.4
2016-Aug-21 05:33N 52°47' E 001°57'3310.4
2016-Aug-21 02:26N 52°14' E 001°55'8 9.7
2016-Aug-21 01:34N 52°06' E 001°52'9 8.6
2016-Aug-21 00:33N 51°57' E 001°49'7 7.1
2016-Aug-20 23:33N 51°50' E 001°48'6 6.4
2016-Aug-20 22:33N 51°44' E 001°49'7 6.7
2016-Aug-20 21:33N 51°37' E 001°49'7 7.3
2016-Aug-20 20:33N 51°30' E 001°48'8 8.1
2016-Aug-20 19:33N 51°22' E 001°44'1010.1
2016-Aug-20 18:33N 51°13' E 001°38'9 9.2
2016-Aug-20 17:33N 51°04' E 001°38'1212.4
2016-Aug-20 16:33N 50°53' E 001°27'6111.8
2016-Aug-20 11:21N 50°06' E 000°26'1013.0
2016-Aug-20 10:33N 49°58' E 000°15'1413.9
2016-Aug-20 09:33N 49°47' E 000°02'1212.0
2016-Aug-20 08:33N 49°36' W 000°05'8 8.3
2016-Aug-20 07:33N 49°30' E 000°03'5 4.6
2016-Aug-20 06:33N 49°29' E 000°10'1 0.5
2016-Aug-20 05:31N 49°29' E 000°11'0 0.0
2016-Aug-20 04:31N 49°29' E 000°11'0 0.0
2016-Aug-20 03:31N 49°29' E 000°11'0 0.0
2016-Aug-20 02:31N 49°29' E 000°11'0 0.0
2016-Aug-20 01:31N 49°29' E 000°11'0 0.0
2016-Aug-20 00:31N 49°29' E 000°11'0 0.0
2016-Aug-19 23:31N 49°29' E 000°11'0 0.0
2016-Aug-19 22:31N 49°29' E 000°11'0 0.0
2016-Aug-19 21:31N 49°29' E 000°11'0 0.0
2016-Aug-19 20:28N 49°29' E 000°11'0 0.0
2016-Aug-19 19:31N 49°29' E 000°11'0 0.0
2016-Aug-19 18:31N 49°29' E 000°11'0 0.0
2016-Aug-19 17:34N 49°29' E 000°11'0 0.0
2016-Aug-19 16:33N 49°29' E 000°11'0 0.0
2016-Aug-19 15:33N 49°29' E 000°11'0 0.0
2016-Aug-19 14:33N 49°29' E 000°11'0 0.0
2016-Aug-19 13:33N 49°29' E 000°11'0 0.0
2016-Aug-19 12:33N 49°29' E 000°11'0 0.0
2016-Aug-19 11:33N 49°29' E 000°11'0 0.0
2016-Aug-19 10:33N 49°29' E 000°11'0 0.0
2016-Aug-19 09:33N 49°29' E 000°11'0 0.0
2016-Aug-19 08:33N 49°29' E 000°11'0 0.0
2016-Aug-19 07:33N 49°29' E 000°11'0 0.0
2016-Aug-19 06:33N 49°29' E 000°11'0 0.0
2016-Aug-19 05:33N 49°29' E 000°11'0 0.0
2016-Aug-19 04:33N 49°29' E 000°11'0 0.0
2016-Aug-19 03:33N 49°29' E 000°11'0 0.0
2016-Aug-19 02:33N 49°29' E 000°11'0 0.0
2016-Aug-19 01:33N 49°29' E 000°11'0 0.0
2016-Aug-19 00:33N 49°29' E 000°11'0 0.0
2016-Aug-18 23:33N 49°29' E 000°11'1 0.6
2016-Aug-18 22:33N 49°29' E 000°10'8 7.8
2016-Aug-18 21:33N 49°31' W 000°01'1110.8
2016-Aug-18 20:34N 49°41' W 000°05'1111.3
2016-Aug-18 19:33N 49°50' E 000°06'1212.2
2016-Aug-18 18:33N 49°60' E 000°18'1313.1
2016-Aug-18 17:33N 50°11' E 000°28'1413.8
2016-Aug-18 16:33N 50°25' E 000°30'1313.3
2016-Aug-18 15:33N 50°36' E 000°41'1413.7
2016-Aug-18 14:33N 50°45' E 000°58'1312.8
2016-Aug-18 13:33N 50°53' E 001°13'1111.2
2016-Aug-18 12:33N 51°01' E 001°26'1110.9
2016-Aug-18 11:33N 51°08' E 001°38'1211.8
2016-Aug-18 10:33N 51°18' E 001°48'1414.2
2016-Aug-18 09:34N 51°30' E 002°01'1515.1
2016-Aug-18 08:33N 51°41' E 002°18'1414.1
2016-Aug-18 07:34N 51°52' E 002°31'1414.2
2016-Aug-18 06:34N 52°06' E 002°23'1413.7
2016-Aug-18 05:33N 52°19' E 002°15'1313.0
2016-Aug-18 04:33N 52°31' E 002°09'1212.0
2016-Aug-18 03:32N 52°43' E 002°02'1110.8
2016-Aug-18 02:33N 52°50' E 001°49'1110.5
2016-Aug-18 01:33N 52°57' E 001°35'1110.7
2016-Aug-18 00:33N 53°05' E 001°25'1111.2
2016-Aug-17 23:33N 53°15' E 001°16'1111.4
2016-Aug-17 22:33N 53°25' E 001°06'1111.0
2016-Aug-17 21:33N 53°29' E 000°50'1212.4
2016-Aug-17 20:33N 53°32' E 000°29'1010.2
2016-Aug-17 19:33N 53°33' E 000°12'1313.2
2016-Aug-17 18:33N 53°38' W 000°09'1 0.8
2016-Aug-17 17:32N 53°38' W 000°10'0 0.0
2016-Aug-17 16:32N 53°38' W 000°10'  

Dump ship's entire track history